Time;durP1;ratioP1;P1;durP2;ratioP2;P2;SDS_P1;SDS_P2;PMS_P1;PMS_P2;Temp;Humidity;BMP_temperature;BMP_pressure;BME280_temperature;BME280_humidity;BME280_pressure;Samples;Min_cycle;Max_cycle;Signal;HPM_P1;HPM_P2
2022/08/31 00:04:43;;;;;;;;;;;;;;;21.10;51.75;101927.63;1029453;28;729;-69
2022/08/31 00:05:33;;;;;;;;;;;;;;;21.11;51.82;101937.47;1030699;28;603;-69
2022/08/31 00:06:23;;;;;;;;;;;;;;;21.11;51.78;101938.34;1030542;28;642;-69
2022/08/31 00:07:14;;;;;;;;;;;;;;;21.10;51.82;101931.19;1030622;28;678;-69
2022/08/31 00:08:04;;;;;;;;;;;;;;;21.09;51.88;101921.34;1030595;28;662;-69
2022/08/31 00:08:55;;;;;;;;;;;;;;;21.08;51.51;101925.06;1030685;28;703;-69
2022/08/31 00:09:45;;;;;;;;;;;;;;;21.07;51.98;101930.63;1030615;28;647;-69
2022/08/31 00:10:39;;;;;;;;;;;;;;;21.06;51.72;101928.91;1030714;28;674;-69
2022/08/31 00:11:30;;;;;;;;;;;;;;;21.06;51.84;101924.34;1028192;28;642;-69
2022/08/31 00:12:21;;;;;;;;;;;;;;;21.04;51.90;101929.03;1028523;28;1957;-69
2022/08/31 00:13:11;;;;;;;;;;;;;;;21.05;51.89;101924.47;1029564;28;689;-69
2022/08/31 00:14:02;;;;;;;;;;;;;;;21.07;52.08;101928.75;1029559;28;697;-69
2022/08/31 00:14:52;;;;;;;;;;;;;;;21.06;51.79;101931.63;1030074;28;873;-69
2022/08/31 00:15:42;;;;;;;;;;;;;;;21.06;51.82;101927.06;1029894;28;653;-69
2022/08/31 00:16:33;;;;;;;;;;;;;;;21.07;52.08;101927.91;1029406;28;635;-69
2022/08/31 00:17:23;;;;;;;;;;;;;;;21.05;51.98;101928.03;1029425;28;627;-69
2022/08/31 00:18:14;;;;;;;;;;;;;;;21.04;51.86;101923.63;1029458;28;693;-68
2022/08/31 00:19:04;;;;;;;;;;;;;;;21.03;51.69;101927.31;1029432;28;607;-68
2022/08/31 00:19:54;;;;;;;;;;;;;;;21.04;51.73;101923.63;1029999;28;665;-68
2022/08/31 00:20:45;;;;;;;;;;;;;;;21.04;51.66;101929.03;1029427;28;689;-68
2022/08/31 00:21:37;;;;;;;;;;;;;;;21.04;51.78;101926.31;1029495;28;642;-69
2022/08/31 00:22:28;;;;;;;;;;;;;;;21.03;51.81;101930.03;1029450;28;670;-68
2022/08/31 00:23:18;;;;;;;;;;;;;;;21.04;51.84;101933.59;1026236;28;689;-68
2022/08/31 00:24:09;;;;;;;;;;;;;;;21.02;51.92;101935.59;1026332;28;697;-68
2022/08/31 00:24:59;;;;;;;;;;;;;;;21.01;51.73;101934.75;1029959;28;662;-68
2022/08/31 00:25:50;;;;;;;;;;;;;;;20.98;51.67;101926.88;1029109;28;1658;-68
2022/08/31 00:26:41;;;;;;;;;;;;;;;20.98;52.04;101926.88;1030459;28;615;-68
2022/08/31 00:27:31;;;;;;;;;;;;;;;20.98;51.93;101924.16;1028145;28;1148;-68
2022/08/31 00:28:22;;;;;;;;;;;;;;;21.00;51.97;101927.59;1030520;28;671;-68
2022/08/31 00:29:12;;;;;;;;;;;;;;;21.01;51.81;101928.47;1030568;28;702;-68
2022/08/31 00:30:03;;;;;;;;;;;;;;;21.01;52.09;101931.16;1030455;28;673;-68
2022/08/31 00:30:53;;;;;;;;;;;;;;;21.00;51.96;101933.03;1030675;28;678;-68
2022/08/31 00:31:43;;;;;;;;;;;;;;;21.01;51.68;101932.03;1030542;28;634;-68
2022/08/31 00:32:34;;;;;;;;;;;;;;;20.99;51.74;101927.75;1030530;28;1962;-68
2022/08/31 00:33:24;;;;;;;;;;;;;;;20.98;51.65;101924.16;1030599;28;698;-68
2022/08/31 00:34:15;;;;;;;;;;;;;;;20.97;51.52;101927.88;1029723;28;1720;-68
2022/08/31 00:35:05;;;;;;;;;;;;;;;20.98;51.74;101929.59;1025770;28;639;-69
2022/08/31 00:35:55;;;;;;;;;;;;;;;20.94;51.60;101924.63;1025710;28;682;-69
2022/08/31 00:36:46;;;;;;;;;;;;;;;20.95;51.56;101923.63;1024496;28;733;-69
2022/08/31 00:37:37;;;;;;;;;;;;;;;20.95;51.45;101921.78;1021174;29;620;-69
2022/08/31 00:38:27;;;;;;;;;;;;;;;20.93;51.66;101937.31;1024526;29;701;-69
2022/08/31 00:39:18;;;;;;;;;;;;;;;20.95;51.53;101929.91;1029335;28;626;-69
2022/08/31 00:40:08;;;;;;;;;;;;;;;20.97;51.62;101933.31;1030580;28;713;-70
2022/08/31 00:40:59;;;;;;;;;;;;;;;20.96;51.38;101925.34;1029323;28;734;-70
2022/08/31 00:41:49;;;;;;;;;;;;;;;20.95;51.64;101923.63;1029405;28;760;-69
2022/08/31 00:42:39;;;;;;;;;;;;;;;20.96;51.69;101926.16;1025719;28;754;-69
2022/08/31 00:43:30;;;;;;;;;;;;;;;20.96;51.51;101920.75;1026105;28;701;-69
2022/08/31 00:44:20;;;;;;;;;;;;;;;20.96;51.57;101925.34;1030432;28;693;-69
2022/08/31 00:45:11;;;;;;;;;;;;;;;20.96;51.61;101931.59;1029358;28;693;-69
2022/08/31 00:46:01;;;;;;;;;;;;;;;20.96;51.42;101922.63;1029255;28;621;-69
2022/08/31 00:46:51;;;;;;;;;;;;;;;20.96;51.49;101928.06;1029399;28;760;-69
2022/08/31 00:47:42;;;;;;;;;;;;;;;20.95;51.49;101924.47;1029308;28;935;-69
2022/08/31 00:48:32;;;;;;;;;;;;;;;20.94;51.70;101920.06;1029273;28;647;-69
2022/08/31 00:49:23;;;;;;;;;;;;;;;20.95;51.41;101923.63;1029430;28;664;-70
2022/08/31 00:50:13;;;;;;;;;;;;;;;20.95;51.52;101924.47;1029395;28;662;-70
2022/08/31 00:51:03;;;;;;;;;;;;;;;20.95;51.60;101924.47;1025143;28;650;-69
2022/08/31 00:51:54;;;;;;;;;;;;;;;20.94;51.35;101924.63;1026341;28;642;-70
2022/08/31 00:52:44;;;;;;;;;;;;;;;20.91;51.50;101925.75;1030396;28;1214;-69
2022/08/31 00:53:35;;;;;;;;;;;;;;;20.90;51.49;101925.88;1032755;28;1550;-70
2022/08/31 00:54:25;;;;;;;;;;;;;;;20.91;51.62;101927.59;1029997;28;663;-69
2022/08/31 00:55:16;;;;;;;;;;;;;;;20.91;51.53;101933.03;1030259;28;658;-70
2022/08/31 00:56:06;;;;;;;;;;;;;;;20.89;51.62;101925.03;1030553;28;633;-69
2022/08/31 00:56:56;;;;;;;;;;;;;;;20.90;51.48;101926.75;1030390;28;661;-69
2022/08/31 00:57:47;;;;;;;;;;;;;;;20.91;51.37;101935.72;1030466;28;642;-69
2022/08/31 00:58:37;;;;;;;;;;;;;;;20.89;51.49;101927.75;1030412;28;689;-69
2022/08/31 00:59:28;;;;;;;;;;;;;;;20.90;51.66;101924.03;1030189;28;662;-69
2022/08/31 01:00:18;;;;;;;;;;;;;;;20.90;51.63;101928.59;1029897;28;622;-69
2022/08/31 01:01:09;;;;;;;;;;;;;;;20.90;51.62;101932.16;1030362;28;693;-69
2022/08/31 01:02:00;;;;;;;;;;;;;;;20.90;51.35;101934.88;1028763;28;626;-69
2022/08/31 01:02:50;;;;;;;;;;;;;;;20.91;51.54;101933.88;1028743;28;611;-69
2022/08/31 01:03:41;;;;;;;;;;;;;;;20.90;51.57;101934.88;1030239;28;673;-70
2022/08/31 01:04:31;;;;;;;;;;;;;;;20.90;51.51;101931.31;1030404;28;700;-70
2022/08/31 01:05:22;;;;;;;;;;;;;;;20.90;51.31;101936.72;1030265;28;632;-69
2022/08/31 01:06:12;;;;;;;;;;;;;;;20.90;51.37;101942.16;1030458;28;655;-69
2022/08/31 01:07:02;;;;;;;;;;;;;;;20.89;51.16;101929.59;1030315;28;758;-69
2022/08/31 01:07:53;;;;;;;;;;;;;;;20.90;51.07;101934.88;1030231;28;1679;-69
2022/08/31 01:08:43;;;;;;;;;;;;;;;20.89;51.62;101933.16;1028749;28;615;-69
2022/08/31 01:09:34;;;;;;;;;;;;;;;20.88;51.48;101939.56;1028693;28;634;-70
2022/08/31 01:10:24;;;;;;;;;;;;;;;20.89;51.18;101932.31;1028732;28;636;-69
2022/08/31 01:11:15;;;;;;;;;;;;;;;20.88;51.32;101934.16;1029027;28;685;-69
2022/08/31 01:12:05;;;;;;;;;;;;;;;20.88;51.44;101931.44;1029505;28;661;-70
2022/08/31 01:12:55;;;;;;;;;;;;;;;20.87;51.38;101937.00;1029855;28;650;-70
2022/08/31 01:13:46;;;;;;;;;;;;;;;20.86;51.46;101924.44;1027992;28;674;-70
2022/08/31 01:14:36;;;;;;;;;;;;;;;20.86;51.44;101922.59;1028647;28;718;-69
2022/08/31 01:15:27;;;;;;;;;;;;;;;20.86;51.49;101925.31;1028630;28;686;-69
2022/08/31 01:16:17;;;;;;;;;;;;;;;20.87;51.49;101927.03;1027636;28;781;-69
2022/08/31 01:17:08;;;;;;;;;;;;;;;20.87;51.46;101923.44;1029278;28;635;-70
2022/08/31 01:17:58;;;;;;;;;;;;;;;20.87;51.51;101929.72;1028590;28;652;-70
2022/08/31 01:18:48;;;;;;;;;;;;;;;20.88;51.48;101927.88;1028685;28;713;-70
2022/08/31 01:19:39;;;;;;;;;;;;;;;20.87;51.60;101926.16;1028625;28;654;-70
2022/08/31 01:20:29;;;;;;;;;;;;;;;20.86;51.33;101930.72;1028617;28;664;-69
2022/08/31 01:21:20;;;;;;;;;;;;;;;20.86;51.64;101925.31;1028768;28;691;-70
2022/08/31 01:22:10;;;;;;;;;;;;;;;20.86;51.57;101935.28;1028238;28;1603;-69
2022/08/31 01:23:01;;;;;;;;;;;;;;;20.84;51.79;101927.28;1028295;28;554;-69
2022/08/31 01:23:51;;;;;;;;;;;;;;;20.85;51.78;101926.31;1029221;28;678;-69
2022/08/31 01:24:41;;;;;;;;;;;;;;;20.84;51.78;101927.28;1029038;28;1555;-69
2022/08/31 01:25:32;;;;;;;;;;;;;;;20.84;51.63;101927.28;1029263;28;618;-69
2022/08/31 01:26:22;;;;;;;;;;;;;;;20.83;51.97;101930.16;1029158;28;630;-69
2022/08/31 01:27:13;;;;;;;;;;;;;;;20.82;51.87;101932.00;1028961;28;1182;-69
2022/08/31 01:28:03;;;;;;;;;;;;;;;20.82;51.86;101937.41;1029312;28;614;-69
2022/08/31 01:28:56;;;;;;;;;;;;;;;20.84;51.28;101931.84;1029225;28;674;-69
2022/08/31 01:29:46;;;;;;;;;;;;;;;20.81;51.83;101927.56;1029186;28;686;-69
2022/08/31 01:30:36;;;;;;;;;;;;;;;20.82;52.04;101929.28;1029148;28;667;-69
2022/08/31 01:31:27;;;;;;;;;;;;;;;20.81;52.06;101924.88;1025408;28;706;-70
2022/08/31 01:32:17;;;;;;;;;;;;;;;20.82;51.72;101929.28;1024270;29;1914;-70
2022/08/31 01:33:08;;;;;;;;;;;;;;;20.82;51.84;101929.28;1028359;28;889;-69
2022/08/31 01:33:58;;;;;;;;;;;;;;;20.80;51.66;101931.28;1028729;28;879;-69
2022/08/31 01:34:49;;;;;;;;;;;;;;;20.79;51.99;101929.56;1028387;28;1606;-69
2022/08/31 01:35:39;;;;;;;;;;;;;;;20.80;51.93;101931.28;1030393;28;673;-70
2022/08/31 01:36:29;;;;;;;;;;;;;;;20.77;51.60;101935.16;1030319;28;681;-70
2022/08/31 01:37:20;;;;;;;;;;;;;;;20.78;51.67;101927.88;1025351;28;749;-70
2022/08/31 01:38:12;;;;;;;;;;;;;;;20.78;51.74;101939.53;1025444;28;717;-68
2022/08/31 01:39:02;;;;;;;;;;;;;;;20.77;52.08;101932.44;1029111;28;620;-69
2022/08/31 01:39:52;;;;;;;;;;;;;;;20.78;51.87;101933.28;1030207;28;623;-69
2022/08/31 01:40:43;;;;;;;;;;;;;;;20.78;51.93;101938.72;1029141;28;790;-68
2022/08/31 01:41:33;;;;;;;;;;;;;;;20.77;51.88;101937.00;1030292;28;658;-68
2022/08/31 01:42:24;;;;;;;;;;;;;;;20.77;51.85;101928.88;1029188;28;666;-69
2022/08/31 01:43:14;;;;;;;;;;;;;;;20.77;51.55;101931.56;1030261;28;639;-69
2022/08/31 01:44:05;;;;;;;;;;;;;;;20.76;51.89;101932.56;1028151;28;656;-68
2022/08/31 01:44:55;;;;;;;;;;;;;;;20.76;52.06;101930.72;1030278;28;682;-70
2022/08/31 01:45:46;;;;;;;;;;;;;;;20.76;52.16;101940.69;1030222;28;618;-70
2022/08/31 01:46:36;;;;;;;;;;;;;;;20.76;51.96;101932.56;1030363;28;646;-70
2022/08/31 01:47:26;;;;;;;;;;;;;;;20.77;51.65;101937.00;1030125;28;689;-70
2022/08/31 01:48:17;;;;;;;;;;;;;;;20.75;51.86;101934.44;1030316;28;1663;-69
2022/08/31 01:49:07;;;;;;;;;;;;;;;20.76;51.94;101938.84;1029812;28;676;-69
2022/08/31 01:49:58;;;;;;;;;;;;;;;20.76;51.88;101929.88;1029137;28;936;-69
2022/08/31 01:50:48;;;;;;;;;;;;;;;20.74;51.50;101934.56;1029090;28;701;-69
2022/08/31 01:51:39;;;;;;;;;;;;;;;20.74;51.99;101939.97;1029116;28;717;-69
2022/08/31 01:52:29;;;;;;;;;;;;;;;20.73;51.79;101931.00;1029016;28;1965;-69
2022/08/31 01:53:20;;;;;;;;;;;;;;;20.74;51.93;101934.56;1031905;28;707;-69
2022/08/31 01:54:10;;;;;;;;;;;;;;;20.74;51.80;101935.41;1032486;28;701;-69
2022/08/31 01:55:02;;;;;;;;;;;;;;;20.73;51.83;101932.84;1031424;28;639;-69
2022/08/31 01:55:52;;;;;;;;;;;;;;;20.73;51.80;101932.84;1032037;28;639;-69
2022/08/31 01:56:43;;;;;;;;;;;;;;;20.74;51.68;101937.28;1031666;28;619;-69
2022/08/31 01:57:33;;;;;;;;;;;;;;;20.73;51.70;101931.00;1031274;28;604;-69
2022/08/31 01:58:24;;;;;;;;;;;;;;;20.73;51.68;101935.56;1031586;28;608;-69
2022/08/31 01:59:14;;;;;;;;;;;;;;;20.74;51.79;101931.84;1032473;28;713;-69
2022/08/31 02:00:04;;;;;;;;;;;;;;;20.74;51.63;101931.84;1031479;28;631;-69
2022/08/31 02:00:55;;;;;;;;;;;;;;;20.71;51.87;101927.56;1031614;28;643;-69
2022/08/31 02:01:45;;;;;;;;;;;;;;;20.71;51.85;101932.97;1031443;28;639;-69
2022/08/31 02:02:36;;;;;;;;;;;;;;;20.70;51.86;101925.00;1028096;28;740;-69
2022/08/31 02:03:26;;;;;;;;;;;;;;;20.72;51.96;101932.00;1028617;28;662;-69
2022/08/31 02:04:17;;;;;;;;;;;;;;;20.71;52.12;101938.41;1025098;28;1717;-69
2022/08/31 02:05:07;;;;;;;;;;;;;;;20.71;51.79;101926.72;1025991;28;619;-69
2022/08/31 02:05:58;;;;;;;;;;;;;;;20.70;51.87;101933.97;1029480;28;623;-69
2022/08/31 02:06:48;;;;;;;;;;;;;;;20.71;51.76;101935.69;1028818;28;694;-70
2022/08/31 02:07:39;;;;;;;;;;;;;;;20.70;51.95;101933.13;1027747;28;663;-69
2022/08/31 02:08:29;;;;;;;;;;;;;;;20.70;52.12;101931.28;1029711;28;690;-69
2022/08/31 02:09:19;;;;;;;;;;;;;;;20.70;52.27;101939.41;1028450;28;654;-69
2022/08/31 02:10:10;;;;;;;;;;;;;;;20.69;51.69;101937.69;1028539;28;643;-69
2022/08/31 02:11:00;;;;;;;;;;;;;;;20.70;51.77;101938.53;1028493;28;697;-69
2022/08/31 02:11:51;;;;;;;;;;;;;;;20.71;51.86;101934.84;1028599;28;663;-69
2022/08/31 02:12:41;;;;;;;;;;;;;;;20.71;51.74;101942.97;1028382;28;1958;-69
2022/08/31 02:13:32;;;;;;;;;;;;;;;20.71;51.54;101945.66;1028535;28;690;-70
2022/08/31 02:14:22;;;;;;;;;;;;;;;20.69;51.92;101936.81;1028514;28;690;-68
2022/08/31 02:15:12;;;;;;;;;;;;;;;20.69;52.25;101931.41;1028540;28;635;-69
2022/08/31 02:16:03;;;;;;;;;;;;;;;20.66;52.12;101934.38;1028826;28;660;-69
2022/08/31 02:16:53;;;;;;;;;;;;;;;20.67;52.01;101930.69;1024790;28;628;-69
2022/08/31 02:17:44;;;;;;;;;;;;;;;20.67;51.76;101934.25;1024522;29;643;-70
2022/08/31 02:18:34;;;;;;;;;;;;;;;20.68;51.98;101937.81;1026229;28;952;-69
2022/08/31 02:19:25;;;;;;;;;;;;;;;20.67;51.97;101936.09;1024510;29;627;-69
2022/08/31 02:20:15;;;;;;;;;;;;;;;20.64;52.26;101941.78;1024487;29;683;-69
2022/08/31 02:21:06;;;;;;;;;;;;;;;20.66;52.06;101945.22;1024549;29;729;-69
2022/08/31 02:21:56;;;;;;;;;;;;;;;20.66;52.02;101939.81;1024705;28;639;-69
2022/08/31 02:22:47;;;;;;;;;;;;;;;20.68;52.01;101943.22;1020733;29;659;-69
2022/08/31 02:23:37;;;;;;;;;;;;;;;20.65;51.98;101936.22;1020773;29;627;-69
2022/08/31 02:24:28;;;;;;;;;;;;;;;20.63;52.31;101940.94;1025464;28;615;-69
2022/08/31 02:25:18;;;;;;;;;;;;;;;20.63;51.97;101934.66;1024417;29;675;-69
2022/08/31 02:26:09;;;;;;;;;;;;;;;20.63;51.84;101940.06;1024460;28;1341;-69
2022/08/31 02:26:59;;;;;;;;;;;;;;;20.62;52.25;101944.63;1023964;29;621;-69
2022/08/31 02:27:50;;;;;;;;;;;;;;;20.63;51.94;101937.38;1024513;29;1202;-70
2022/08/31 02:28:40;;;;;;;;;;;;;;;20.64;52.14;101939.06;1024396;29;695;-69
2022/08/31 02:29:30;;;;;;;;;;;;;;;20.64;51.69;101930.94;1024417;29;637;-69
2022/08/31 02:30:21;;;;;;;;;;;;;;;20.63;52.16;101938.22;1027759;28;1626;-69
2022/08/31 02:31:11;;;;;;;;;;;;;;;20.63;51.79;101934.66;1030116;28;606;-69
2022/08/31 02:32:02;;;;;;;;;;;;;;;20.62;52.19;101946.47;1030126;28;772;-69
2022/08/31 02:32:52;;;;;;;;;;;;;;;20.60;51.85;101935.78;1029734;28;632;-69
2022/08/31 02:33:43;;;;;;;;;;;;;;;20.58;52.06;101937.81;1030040;28;622;-69
2022/08/31 02:34:33;;;;;;;;;;;;;;;20.60;52.19;101938.50;1029961;28;638;-69
2022/08/31 02:35:23;;;;;;;;;;;;;;;20.62;52.18;101938.34;1029999;28;704;-69
2022/08/31 02:36:14;;;;;;;;;;;;;;;20.62;51.85;101933.78;1030017;28;619;-69
2022/08/31 02:37:04;;;;;;;;;;;;;;;20.63;51.85;101934.66;1028970;28;626;-69
2022/08/31 02:37:55;;;;;;;;;;;;;;;20.60;52.28;101935.78;1030146;28;665;-69
2022/08/31 02:38:45;;;;;;;;;;;;;;;20.61;51.99;101933.94;1030208;28;694;-69
2022/08/31 02:39:35;;;;;;;;;;;;;;;20.61;52.22;101929.38;1028958;28;670;-69
2022/08/31 02:40:26;;;;;;;;;;;;;;;20.59;51.77;101922.41;1030024;28;634;-69
2022/08/31 02:41:16;;;;;;;;;;;;;;;20.58;52.13;101926.97;1028935;28;702;-69
2022/08/31 02:42:07;;;;;;;;;;;;;;;20.59;51.87;101927.81;1030135;28;610;-69
2022/08/31 02:42:57;;;;;;;;;;;;;;;20.60;52.09;101924.13;1029063;28;638;-69
2022/08/31 02:43:48;;;;;;;;;;;;;;;20.58;51.93;101926.97;1030145;28;709;-69
2022/08/31 02:44:38;;;;;;;;;;;;;;;20.57;51.79;101929.81;1029720;28;1501;-69
2022/08/31 02:45:29;;;;;;;;;;;;;;;20.56;52.25;101934.38;1028338;28;642;-68
2022/08/31 02:46:19;;;;;;;;;;;;;;;20.57;51.84;101929.81;1028526;28;1603;-68
2022/08/31 02:47:09;;;;;;;;;;;;;;;20.57;51.86;101929.81;1027945;28;606;-68
2022/08/31 02:48:00;;;;;;;;;;;;;;;20.57;52.30;101927.09;1028475;28;660;-68
2022/08/31 02:48:50;;;;;;;;;;;;;;;20.58;51.94;101931.53;1028476;28;690;-69
2022/08/31 02:49:41;;;;;;;;;;;;;;;20.58;51.76;101931.53;1028479;28;670;-69
2022/08/31 02:50:31;;;;;;;;;;;;;;;20.58;52.02;101928.81;1028350;28;616;-68
2022/08/31 02:51:22;;;;;;;;;;;;;;;20.57;51.70;101929.81;1028426;28;650;-68
2022/08/31 02:52:12;;;;;;;;;;;;;;;20.55;51.82;101924.53;1028530;28;694;-68
2022/08/31 02:53:02;;;;;;;;;;;;;;;20.55;51.95;101921.81;1031472;28;1261;-69
2022/08/31 02:53:53;;;;;;;;;;;;;;;20.56;52.03;101933.50;1031417;28;645;-68
2022/08/31 02:54:43;;;;;;;;;;;;;;;20.53;51.71;101928.38;1031194;28;611;-69
2022/08/31 02:55:34;;;;;;;;;;;;;;;20.54;52.00;101925.53;1031422;28;651;-69
2022/08/31 02:56:24;;;;;;;;;;;;;;;20.52;51.81;101929.34;1031080;28;749;-69
2022/08/31 02:57:15;;;;;;;;;;;;;;;20.51;52.00;101933.91;1031408;28;662;-69
2022/08/31 02:58:05;;;;;;;;;;;;;;;20.52;51.90;101932.94;1031176;28;687;-69
2022/08/31 02:58:56;;;;;;;;;;;;;;;20.53;51.79;101933.78;1028979;28;665;-69
2022/08/31 02:59:46;;;;;;;;;;;;;;;20.52;51.49;101929.34;1029087;28;701;-69
2022/08/31 03:00:37;;;;;;;;;;;;;;;20.51;51.69;101923.09;1025414;28;685;-69
2022/08/31 03:01:27;;;;;;;;;;;;;;;20.50;51.39;101929.50;1023745;29;744;-69
2022/08/31 03:02:18;;;;;;;;;;;;;;;20.50;51.62;101932.19;1029388;28;631;-69
2022/08/31 03:03:08;;;;;;;;;;;;;;;20.52;51.25;101926.66;1029030;28;673;-69
2022/08/31 03:03:59;;;;;;;;;;;;;;;20.50;51.58;101929.50;1029008;28;975;-69
2022/08/31 03:04:50;;;;;;;;;;;;;;;20.51;51.69;101930.34;1028501;28;666;-69
2022/08/31 03:05:40;;;;;;;;;;;;;;;20.50;51.41;101929.50;1028939;28;650;-69
2022/08/31 03:06:31;;;;;;;;;;;;;;;20.50;51.34;101931.34;1028853;28;654;-69
2022/08/31 03:07:21;;;;;;;;;;;;;;;20.50;51.69;101928.63;1028431;28;615;-69
2022/08/31 03:08:12;;;;;;;;;;;;;;;20.48;51.70;101930.63;1029095;28;693;-69
2022/08/31 03:09:02;;;;;;;;;;;;;;;20.50;51.42;101931.34;1029011;28;722;-69
2022/08/31 03:09:53;;;;;;;;;;;;;;;20.50;51.76;101934.91;1029012;28;646;-70
2022/08/31 03:10:43;;;;;;;;;;;;;;;20.51;51.25;101924.94;1029455;28;689;-69
2022/08/31 03:11:33;;;;;;;;;;;;;;;20.48;51.62;101936.88;1025174;28;650;-69
2022/08/31 03:12:24;;;;;;;;;;;;;;;20.47;51.74;101935.19;1025624;28;1899;-69
2022/08/31 03:13:14;;;;;;;;;;;;;;;20.49;51.63;101943.16;1026253;28;619;-69
2022/08/31 03:14:05;;;;;;;;;;;;;;;20.47;51.28;101927.06;1029415;28;1571;-69
2022/08/31 03:14:55;;;;;;;;;;;;;;;20.48;51.56;101938.75;1029898;28;1577;-69
2022/08/31 03:15:46;;;;;;;;;;;;;;;20.47;51.51;101937.88;1030072;28;681;-69
2022/08/31 03:16:36;;;;;;;;;;;;;;;20.48;51.55;101936.03;1029935;28;742;-69
2022/08/31 03:17:26;;;;;;;;;;;;;;;20.47;51.25;101937.88;1025204;28;674;-70
2022/08/31 03:18:17;;;;;;;;;;;;;;;20.49;51.49;101937.75;1025178;28;722;-69
2022/08/31 03:19:08;;;;;;;;;;;;;;;20.47;51.51;101937.88;1028860;28;666;-68
2022/08/31 03:20:01;;;;;;;;;;;;;;;20.47;51.48;101934.31;1028923;28;799;-68
2022/08/31 03:20:51;;;;;;;;;;;;;;;20.47;51.17;101948.72;1028873;28;658;-68
2022/08/31 03:21:44;;;;;;;;;;;;;;;20.44;51.49;101936.31;1029988;28;866;-68
2022/08/31 03:22:34;;;;;;;;;;;;;;;20.44;51.30;101941.72;1028862;28;669;-68
2022/08/31 03:23:25;;;;;;;;;;;;;;;20.44;51.52;101941.72;1030082;28;768;-70
2022/08/31 03:24:20;;;;;;;;;;;;;;;20.45;51.13;101935.31;1030129;28;670;-68
2022/08/31 03:25:10;;;;;;;;;;;;;;;20.43;51.31;101939.16;1027914;28;632;-68
2022/08/31 03:26:04;;;;;;;;;;;;;;;20.43;51.60;101934.59;1030043;28;710;-68
2022/08/31 03:26:54;;;;;;;;;;;;;;;20.42;51.50;101935.59;1027934;28;1325;-69
2022/08/31 03:27:45;;;;;;;;;;;;;;;20.44;51.52;101938.16;1028374;28;627;-69
2022/08/31 03:28:35;;;;;;;;;;;;;;;20.43;51.52;101939.16;1028419;28;651;-69
2022/08/31 03:29:25;;;;;;;;;;;;;;;20.43;51.05;101947.28;1028610;28;682;-69
2022/08/31 03:30:16;;;;;;;;;;;;;;;20.42;51.18;101949.13;1029066;28;683;-69
2022/08/31 03:31:06;;;;;;;;;;;;;;;20.43;51.39;101945.41;1029528;28;635;-69
2022/08/31 03:31:57;;;;;;;;;;;;;;;20.43;51.61;101944.56;1028543;28;684;-69
2022/08/31 03:32:47;;;;;;;;;;;;;;;20.41;51.45;101936.59;1028307;28;1977;-69
2022/08/31 03:33:38;;;;;;;;;;;;;;;20.40;51.53;101943.00;1028285;28;671;-68
2022/08/31 03:34:28;;;;;;;;;;;;;;;20.40;51.41;101945.72;1028895;28;772;-68
2022/08/31 03:35:19;;;;;;;;;;;;;;;20.40;51.47;101937.59;1028355;28;694;-68
2022/08/31 03:36:09;;;;;;;;;;;;;;;20.39;51.08;101941.28;1028541;28;632;-68
2022/08/31 03:37:00;;;;;;;;;;;;;;;20.39;51.37;101944.00;1027929;28;663;-68
2022/08/31 03:37:50;;;;;;;;;;;;;;;20.39;51.33;101941.28;1028273;28;733;-69
2022/08/31 03:38:41;;;;;;;;;;;;;;;20.37;50.84;101940.56;1029052;28;698;-69
2022/08/31 03:39:31;;;;;;;;;;;;;;;20.38;50.90;101942.28;1029601;28;651;-69
2022/08/31 03:40:21;;;;;;;;;;;;;;;20.39;50.83;101940.44;1029050;28;667;-69
2022/08/31 03:41:12;;;;;;;;;;;;;;;20.39;51.03;101948.56;1028680;28;1628;-69
2022/08/31 03:42:02;;;;;;;;;;;;;;;20.36;51.10;101936.16;1030793;28;629;-70
2022/08/31 03:42:53;;;;;;;;;;;;;;;20.38;51.04;101944.13;1030714;28;705;-69
2022/08/31 03:43:43;;;;;;;;;;;;;;;20.35;50.54;101934.41;1030838;28;815;-69
2022/08/31 03:44:34;;;;;;;;;;;;;;;20.36;50.90;101943.38;1030731;28;611;-69
2022/08/31 03:45:26;;;;;;;;;;;;;;;20.36;50.67;101935.25;1030853;28;630;-69
2022/08/31 03:46:16;;;;;;;;;;;;;;;20.35;50.58;101937.09;1028449;28;643;-69
2022/08/31 03:47:07;;;;;;;;;;;;;;;20.34;50.60;101935.38;1029573;28;626;-69
2022/08/31 03:47:58;;;;;;;;;;;;;;;20.34;50.43;101935.38;1030749;28;626;-69
2022/08/31 03:48:48;;;;;;;;;;;;;;;20.34;50.40;101940.81;1028396;28;710;-69
2022/08/31 03:49:39;;;;;;;;;;;;;;;20.35;50.69;101930.84;1030619;28;668;-69
2022/08/31 03:50:29;;;;;;;;;;;;;;;20.34;50.59;101939.94;1028432;28;682;-69
2022/08/31 03:51:20;;;;;;;;;;;;;;;20.34;50.10;101938.09;1030605;28;681;-69
2022/08/31 03:52:10;;;;;;;;;;;;;;;20.31;50.07;101934.81;1029485;28;828;-69
2022/08/31 03:53:03;;;;;;;;;;;;;;;20.32;50.21;101948.19;1033513;28;1258;-69
2022/08/31 03:53:53;;;;;;;;;;;;;;;20.31;50.01;101943.78;1032574;28;671;-69
2022/08/31 03:54:43;;;;;;;;;;;;;;;20.33;50.13;101943.66;1031772;28;667;-69
2022/08/31 03:55:34;;;;;;;;;;;;;;;20.32;50.19;101941.94;1029573;28;642;-70
2022/08/31 03:56:24;;;;;;;;;;;;;;;20.33;50.40;101944.50;1029518;28;689;-69
2022/08/31 03:57:15;;;;;;;;;;;;;;;20.33;50.42;101944.50;1029587;28;607;-69
2022/08/31 03:58:05;;;;;;;;;;;;;;;20.33;50.20;101941.78;1029554;28;691;-69
2022/08/31 03:58:55;;;;;;;;;;;;;;;20.33;49.76;101944.50;1030183;28;626;-69
2022/08/31 03:59:46;;;;;;;;;;;;;;;20.31;49.86;101945.63;1029081;28;729;-69
2022/08/31 04:00:36;;;;;;;;;;;;;;;20.31;50.12;101951.03;1029464;28;705;-69
2022/08/31 04:01:27;;;;;;;;;;;;;;;20.29;50.05;101948.47;1029505;28;717;-69
2022/08/31 04:02:17;;;;;;;;;;;;;;;20.30;49.89;101952.91;1029561;28;701;-69
2022/08/31 04:03:08;;;;;;;;;;;;;;;20.31;49.89;101948.34;1029494;28;681;-69
2022/08/31 04:03:58;;;;;;;;;;;;;;;20.30;49.95;101944.78;1029534;28;733;-69
2022/08/31 04:04:48;;;;;;;;;;;;;;;20.30;49.47;101949.31;1029430;28;674;-69
2022/08/31 04:05:39;;;;;;;;;;;;;;;20.29;50.07;101945.75;1029505;28;661;-69
2022/08/31 04:06:29;;;;;;;;;;;;;;;20.30;49.79;101947.47;1029553;28;615;-69
2022/08/31 04:07:20;;;;;;;;;;;;;;;20.28;49.64;101954.88;1030092;28;657;-69
2022/08/31 04:08:10;;;;;;;;;;;;;;;20.29;49.88;101944.91;1029623;28;631;-69
2022/08/31 04:09:00;;;;;;;;;;;;;;;20.29;49.83;101943.06;1029505;28;952;-69
2022/08/31 04:09:51;;;;;;;;;;;;;;;20.29;49.88;101945.75;1029515;28;681;-69
2022/08/31 04:10:41;;;;;;;;;;;;;;;20.28;49.42;101944.03;1026417;28;717;-69
2022/08/31 04:11:32;;;;;;;;;;;;;;;20.28;49.94;101948.59;1025756;28;717;-69
2022/08/31 04:12:22;;;;;;;;;;;;;;;20.27;49.42;101945.03;1029141;28;1894;-69
2022/08/31 04:13:13;;;;;;;;;;;;;;;20.26;49.98;101937.91;1028358;28;653;-70
2022/08/31 04:14:03;;;;;;;;;;;;;;;20.27;49.67;101950.44;1029577;28;681;-69
2022/08/31 04:14:54;;;;;;;;;;;;;;;20.26;49.37;101942.47;1029384;28;681;-69
2022/08/31 04:15:45;;;;;;;;;;;;;;;20.26;49.27;101948.72;1029509;28;615;-69
2022/08/31 04:16:35;;;;;;;;;;;;;;;20.25;48.97;101947.03;1025127;28;650;-70
2022/08/31 04:17:26;;;;;;;;;;;;;;;20.26;49.38;101946.03;1026207;28;713;-70
2022/08/31 04:18:19;;;;;;;;;;;;;;;20.25;49.34;101947.03;1029967;28;607;-69
2022/08/31 04:19:10;;;;;;;;;;;;;;;20.25;48.84;101948.88;1029420;28;714;-68
2022/08/31 04:20:00;;;;;;;;;;;;;;;20.24;48.98;101948.03;1028829;28;646;-68
2022/08/31 04:20:51;;;;;;;;;;;;;;;20.24;48.99;101947.19;1029508;28;627;-68
2022/08/31 04:21:42;;;;;;;;;;;;;;;20.23;49.12;101945.47;1029374;28;634;-69
2022/08/31 04:22:33;;;;;;;;;;;;;;;20.23;49.00;101948.19;1029411;28;673;-69
2022/08/31 04:23:28;;;;;;;;;;;;;;;20.21;48.89;101956.44;1029401;28;649;-69
2022/08/31 04:24:18;;;;;;;;;;;;;;;20.22;48.86;101950.03;1026019;28;620;-69
2022/08/31 04:25:09;;;;;;;;;;;;;;;20.21;49.01;101953.72;1026563;28;622;-70
2022/08/31 04:25:59;;;;;;;;;;;;;;;20.22;48.96;101958.16;1026500;28;651;-68
2022/08/31 04:26:49;;;;;;;;;;;;;;;20.22;48.80;101957.28;1024852;29;634;-70
2022/08/31 04:27:41;;;;;;;;;;;;;;;20.21;49.02;101945.59;1024874;29;741;-68
2022/08/31 04:28:31;;;;;;;;;;;;;;;20.21;48.61;101953.72;1025555;28;733;-68
2022/08/31 04:29:22;;;;;;;;;;;;;;;20.21;48.25;101953.72;1024899;29;622;-68
2022/08/31 04:30:12;;;;;;;;;;;;;;;20.20;48.34;101954.72;1026690;28;704;-69